Time;durP1;ratioP1;P1;durP2;ratioP2;P2;SDS_P1;SDS_P2;PMS_P1;PMS_P2;Temp;Humidity;BMP_temperature;BMP_pressure;BME280_temperature;BME280_humidity;BME280_pressure;Samples;Min_cycle;Max_cycle;Signal;HPM_P1;HPM_P2
2022/06/02 00:02:03;;;;;;;3.50;0.90;;;;;;;27.91;39.36;100728.59;4893002;29;20064;-82
2022/06/02 00:04:39;;;;;;;1.33;0.90;;;;;;;27.99;39.04;100725.59;4882370;29;20045;-79
2022/06/02 00:07:12;;;;;;;1.67;0.77;;;;;;;28.10;37.01;100722.47;4894592;29;20044;-78
2022/06/02 00:09:58;;;;;;;2.05;1.00;;;;;;;28.13;36.66;100719.66;4895896;29;20055;-79
2022/06/02 00:12:33;;;;;;;1.83;0.80;;;;;;;28.19;36.79;100722.06;4885721;29;20397;-79
2022/06/02 00:15:12;;;;;;;3.35;1.10;;;;;;;28.24;34.99;100716.53;4903626;29;20056;-77
2022/06/02 00:17:47;;;;;;;2.75;0.80;;;;;;;28.23;34.80;100709.50;4885297;29;20052;-79
2022/06/02 00:20:19;;;;;;;1.33;0.80;;;;;;;28.27;33.64;100713.75;4898574;29;20052;-78
2022/06/02 00:23:18;;;;;;;1.95;0.65;;;;;;;28.30;33.08;100708.28;4894248;29;20131;-78
2022/06/02 00:25:54;;;;;;;2.35;0.90;;;;;;;28.22;35.16;100705.94;4882856;29;20067;-79
2022/06/02 00:28:31;;;;;;;1.50;0.93;;;;;;;28.11;35.08;100703.78;4879411;29;20057;-78
2022/06/02 00:31:08;;;;;;;1.48;0.88;;;;;;;28.19;34.08;100709.59;4881636;29;20053;-77
2022/06/02 00:33:56;;;;;;;2.22;0.80;;;;;;;28.25;34.80;100712.94;4882395;29;20041;-79
2022/06/02 00:36:30;;;;;;;3.47;0.80;;;;;;;28.25;34.67;100705.81;4893942;29;20056;-79
2022/06/02 00:39:00;;;;;;;4.03;0.90;;;;;;;28.30;35.09;100703.81;4881810;29;20060;-80
2022/06/02 00:41:40;;;;;;;1.20;0.98;;;;;;;28.28;35.92;100702.16;4882991;29;20415;-80
2022/06/02 00:44:23;;;;;;;1.20;0.85;;;;;;;28.28;36.32;100699.50;4887998;29;20045;-80
2022/06/02 00:46:59;;;;;;;2.35;0.88;;;;;;;28.28;36.78;100688.84;4896417;29;20131;-80
2022/06/02 00:49:37;;;;;;;1.80;1.33;;;;;;;28.23;36.07;100686.41;4888228;29;20044;-81
2022/06/02 00:52:22;;;;;;;2.40;1.17;;;;;;;28.17;36.05;100682.22;4884032;28;20053;-79
2022/06/02 00:57:52;;;;;;;1.63;1.08;;;;;;;28.18;36.86;100677.78;4865829;29;20056;-82
2022/06/02 01:00:26;;;;;;;1.85;0.95;;;;;;;28.17;36.42;100679.53;4881938;29;20049;-78
2022/06/02 01:02:58;;;;;;;1.23;0.80;;;;;;;28.21;36.86;100677.63;4889998;29;20499;-79
2022/06/02 01:05:43;;;;;;;3.55;1.10;;;;;;;28.16;35.65;100675.19;4888312;29;20059;-83
2022/06/02 01:08:28;;;;;;;2.17;1.00;;;;;;;28.18;37.01;100675.97;4889314;29;20057;-85
2022/06/02 01:11:12;;;;;;;1.33;0.90;;;;;;;28.19;35.78;100675.03;4890281;29;20052;-85
2022/06/02 01:13:55;;;;;;;2.58;0.80;;;;;;;28.08;35.32;100676.44;4897116;29;20044;-82
2022/06/02 01:16:37;;;;;;;2.30;0.77;;;;;;;28.00;36.13;100674.13;4894796;29;20052;-81
2022/06/02 01:19:26;;;;;;;1.45;0.80;;;;;;;27.97;36.04;100671.63;4893940;29;20511;-83
2022/06/02 01:22:22;;;;;;;1.05;0.60;;;;;;;27.94;36.27;100685.03;4904298;29;20049;-80
2022/06/02 01:25:11;;;;;;;4.25;1.13;;;;;;;27.92;36.27;100673.59;4885858;29;20770;-80
2022/06/02 01:28:12;;;;;;;3.10;1.20;;;;;;;27.95;36.79;100676.16;4889181;29;20056;-80
2022/06/02 01:30:51;;;;;;;2.00;1.10;;;;;;;27.87;36.73;100670.28;4879101;29;20500;-79
2022/06/02 01:33:31;;;;;;;2.00;0.90;;;;;;;27.66;37.00;100669.41;4889489;29;20055;-81
2022/06/02 01:36:11;;;;;;;2.10;1.17;;;;;;;27.47;37.99;100670.19;4895165;29;20091;-82
2022/06/02 01:38:55;;;;;;;2.05;1.00;;;;;;;27.39;38.42;100674.09;4886221;29;20053;-80
2022/06/02 01:41:32;;;;;;;2.22;1.05;;;;;;;27.32;37.51;100671.66;4887153;29;20063;-78
2022/06/02 01:44:10;;;;;;;3.42;1.30;;;;;;;27.18;37.72;100676.66;4883017;29;20061;-79
2022/06/02 01:46:46;;;;;;;4.40;1.30;;;;;;;27.15;38.46;100669.69;4885438;29;21354;-79
2022/06/02 01:49:33;;;;;;;6.97;1.15;;;;;;;27.05;37.65;100670.13;4892845;29;20052;-79
2022/06/02 01:52:14;;;;;;;2.92;0.77;;;;;;;26.95;38.62;100678.44;4890292;28;20468;-79
2022/06/02 01:54:56;;;;;;;3.03;1.00;;;;;;;26.87;38.88;100679.66;4884943;29;20517;-81
2022/06/02 01:57:38;;;;;;;2.92;1.35;;;;;;;26.84;38.52;100675.34;4884410;29;20491;-79
2022/06/02 02:00:11;;;;;;;5.03;1.08;;;;;;;26.81;39.16;100672.84;4881975;29;20488;-79
2022/06/02 02:02:55;;;;;;;1.30;1.00;;;;;;;26.75;39.38;100675.72;4891627;29;20172;-80
2022/06/02 02:05:38;;;;;;;2.53;1.05;;;;;;;26.72;39.19;100665.22;4888562;29;20053;-77
2022/06/02 02:08:23;;;;;;;3.35;1.10;;;;;;;26.69;39.35;100676.84;4881040;29;20057;-77
2022/06/02 02:11:07;;;;;;;3.00;0.80;;;;;;;26.54;39.79;100667.66;4884560;29;20519;-79
2022/06/02 02:13:43;;;;;;;3.53;0.80;;;;;;;26.52;40.46;100677.44;4888497;29;20066;-80
2022/06/02 02:16:21;;;;;;;3.47;1.20;;;;;;;26.50;39.84;100670.47;4883959;29;20510;-79
2022/06/02 02:18:58;;;;;;;1.38;1.00;;;;;;;26.44;39.61;100676.88;4891677;29;20488;-79
2022/06/02 02:21:41;;;;;;;3.10;0.93;;;;;;;26.39;39.92;100673.53;4903842;29;20523;-80
2022/06/02 02:24:23;;;;;;;1.70;0.90;;;;;;;26.38;40.46;100681.53;4886920;29;20464;-79
2022/06/02 02:26:59;;;;;;;2.58;1.10;;;;;;;26.33;40.73;100676.41;4891351;29;20056;-79
2022/06/02 02:29:35;;;;;;;2.72;1.05;;;;;;;26.28;40.19;100665.97;4884868;29;20516;-77
2022/06/02 02:32:11;;;;;;;2.47;0.88;;;;;;;26.25;40.52;100675.81;4876685;29;20057;-78
2022/06/02 02:34:56;;;;;;;3.30;1.15;;;;;;;26.23;40.91;100672.38;4889292;29;20128;-79
2022/06/02 02:37:31;;;;;;;2.13;0.95;;;;;;;26.19;40.89;100668.09;4889782;29;20587;-78
2022/06/02 02:40:07;;;;;;;2.35;1.00;;;;;;;26.13;40.64;100667.38;4894627;29;20052;-78
2022/06/02 02:42:39;;;;;;;3.88;0.98;;;;;;;26.09;40.70;100665.78;4890024;29;20048;-80
2022/06/02 02:45:10;;;;;;;;;;;;;;;26.04;40.83;100670.38;4883726;29;20071;-79
2022/06/02 02:47:46;;;;;;;2.85;1.08;;;;;;;25.96;41.36;100668.94;4891657;29;20424;-80
2022/06/02 02:50:21;;;;;;;1.33;0.90;;;;;;;25.91;41.58;100666.44;4886485;28;20049;-81
2022/06/02 02:52:57;;;;;;;1.55;1.13;;;;;;;25.86;41.78;100668.34;4894404;29;20106;-82
2022/06/02 02:55:30;;;;;;;2.25;1.08;;;;;;;25.80;41.43;100669.44;4888092;29;20056;-81
2022/06/02 02:58:06;;;;;;;3.08;1.10;;;;;;;25.73;42.66;100667.06;4888437;29;20059;-80
2022/06/02 03:00:41;;;;;;;3.70;1.20;;;;;;;25.64;43.23;100671.75;4880626;29;20128;-80
2022/06/02 03:03:24;;;;;;;7.90;2.10;;;;;;;25.55;43.71;100668.56;4891629;29;20052;-80
2022/06/02 03:06:11;;;;;;;2.63;1.27;;;;;;;25.45;44.68;100673.31;4888500;29;20061;-81
2022/06/02 03:08:49;;;;;;;3.80;1.25;;;;;;;25.35;45.68;100677.16;4892845;29;20062;-81
2022/06/02 03:11:35;;;;;;;3.42;1.35;;;;;;;25.24;46.28;100681.06;4890774;29;20052;-81
2022/06/02 03:14:11;;;;;;;4.40;1.60;;;;;;;25.14;46.46;100684.88;4895225;29;20056;-81
2022/06/02 03:16:42;;;;;;;4.60;1.60;;;;;;;25.07;47.18;100696.56;4897706;29;20049;-81
2022/06/02 03:19:23;;;;;;;4.85;1.58;;;;;;;24.98;47.42;100694.22;4900223;29;20531;-81
2022/06/02 03:22:00;;;;;;;5.20;1.70;;;;;;;24.82;48.26;100697.31;4890334;29;20044;-85
2022/06/02 03:24:52;;;;;;;6.18;1.50;;;;;;;24.71;48.53;100706.50;4897516;29;20052;-84
2022/06/02 03:27:32;;;;;;;3.57;1.53;;;;;;;24.65;48.59;100708.41;4890781;29;20053;-83
2022/06/02 03:30:15;;;;;;;3.08;1.20;;;;;;;24.56;48.80;100710.47;4887923;29;20063;-82
2022/06/02 03:33:06;;;;;;;4.13;1.50;;;;;;;24.44;49.67;100714.28;4890274;29;20061;-84
2022/06/02 03:35:44;;;;;;;5.55;1.77;;;;;;;24.31;49.89;100712.94;4881577;29;20611;-83
2022/06/02 03:38:31;;;;;;;4.47;1.40;;;;;;;24.20;50.29;100716.72;4889346;29;20119;-82
2022/06/02 03:41:25;;;;;;;5.22;1.48;;;;;;;24.14;50.28;100721.31;4891765;29;20049;-82
2022/06/02 03:44:00;;;;;;;3.97;1.40;;;;;;;24.08;49.69;100717.06;4881560;29;20393;-84
2022/06/02 03:46:49;;;;;;;3.03;1.50;;;;;;;24.02;51.26;100723.38;4883773;29;20048;-83
2022/06/02 03:49:30;;;;;;;4.65;1.20;;;;;;;23.98;50.32;100727.03;4881055;29;20096;-81
2022/06/02 03:52:16;;;;;;;5.00;1.60;;;;;;;23.86;51.46;100722.03;4887433;28;20630;-84
2022/06/02 03:55:02;;;;;;;4.40;1.98;;;;;;;23.77;50.32;100719.63;4895728;29;20076;-83
2022/06/02 03:57:45;;;;;;;3.33;1.20;;;;;;;23.65;49.43;100725.22;4885825;29;20146;-82
2022/06/02 04:00:22;;;;;;;3.83;1.65;;;;;;;23.56;50.21;100724.53;4879612;29;20045;-83
2022/06/02 04:02:54;;;;;;;4.13;1.40;;;;;;;23.46;50.54;100712.47;4889895;29;20456;-81
2022/06/02 04:05:55;;;;;;;3.47;1.30;;;;;;;23.40;50.19;100716.09;4886845;29;20052;-78
2022/06/02 04:08:39;;;;;;;3.90;1.45;;;;;;;23.31;50.52;100718.97;4863511;29;20056;-82
2022/06/02 04:13:37;;;;;;;2.80;1.10;;;;;;;23.23;50.32;100723.59;4885836;29;20389;-82
2022/06/02 04:14:26;;;;;;;1.30;1.15;;;;;;;23.10;50.87;100725.63;4900055;29;20107;-79
2022/06/02 04:17:01;;;;;;;2.60;1.40;;;;;;;23.01;51.03;100723.19;4890992;29;20519;-84
2022/06/02 04:22:43;;;;;;;2.67;1.70;;;;;;;22.77;50.99;100732.50;4888742;29;20146;-82
2022/06/02 04:25:32;;;;;;;4.18;1.48;;;;;;;22.62;54.85;100738.06;4895348;29;20056;-81
2022/06/02 04:28:11;;;;;;;4.00;1.45;;;;;;;22.51;54.72;100739.16;4896285;29;20123;-80
2022/06/02 04:30:49;;;;;;;3.75;1.40;;;;;;;22.45;52.48;100741.94;4883835;29;20071;-84
2022/06/02 04:33:23;;;;;;;2.88;1.40;;;;;;;22.38;52.18;100729.78;4894203;29;20040;-83
2022/06/02 04:36:02;;;;;;;4.50;1.65;;;;;;;22.33;51.40;100727.22;4895193;29;20059;-80
2022/06/02 04:38:38;;;;;;;3.65;1.20;;;;;;;22.33;51.71;100743.03;4890505;29;20049;-80
2022/06/02 04:41:16;;;;;;;2.10;1.35;;;;;;;22.24;53.46;100737.94;4878970;29;20232;-82
2022/06/02 04:43:54;;;;;;;6.25;1.75;;;;;;;22.15;53.84;100743.31;4883806;29;20052;-82
2022/06/02 04:46:35;;;;;;;3.15;1.20;;;;;;;22.07;54.01;100739.97;4882950;29;20087;-83
2022/06/02 04:49:10;;;;;;;4.15;1.20;;;;;;;21.99;53.41;100752.41;4894021;29;20507;-82
2022/06/02 04:51:51;;;;;;;3.67;1.45;;;;;;;21.94;56.04;100758.66;4884835;28;20049;-83
2022/06/02 04:54:30;;;;;;;1.67;1.10;;;;;;;21.84;54.86;100757.06;4880058;29;20053;-80
2022/06/02 04:57:04;;;;;;;3.28;1.27;;;;;;;21.76;53.75;100756.31;4889737;29;20045;-80
2022/06/02 04:59:40;;;;;;;3.72;1.40;;;;;;;21.73;55.84;100759.88;4881406;29;20496;-79
2022/06/02 05:02:21;;;;;;;2.17;1.20;;;;;;;21.66;54.52;100763.50;4886303;29;20040;-81
2022/06/02 05:04:55;;;;;;;2.90;1.40;;;;;;;21.60;54.13;100762.72;4885717;29;20049;-80
2022/06/02 05:07:45;;;;;;;5.10;1.40;;;;;;;21.56;53.79;100758.44;4897820;29;20048;-78
2022/06/02 05:10:19;;;;;;;2.22;1.30;;;;;;;21.54;54.07;100763.69;4884948;29;20052;-81
2022/06/02 05:12:57;;;;;;;3.65;1.38;;;;;;;21.48;53.95;100764.66;4887734;29;20501;-81
2022/06/02 05:15:45;;;;;;;4.95;1.48;;;;;;;21.44;53.86;100757.72;4896475;29;20060;-81
2022/06/02 05:18:36;;;;;;;2.97;1.30;;;;;;;21.38;54.45;100760.41;4894754;29;20067;-78
2022/06/02 05:21:23;;;;;;;2.20;1.20;;;;;;;21.32;54.75;100760.47;4894090;29;20052;-79
2022/06/02 05:24:17;;;;;;;5.68;1.60;;;;;;;21.25;54.59;100764.97;4886147;29;20052;-77
2022/06/02 05:27:29;;;;;;;2.80;1.25;;;;;;;21.19;54.52;100770.34;4889318;29;20049;-78
2022/06/02 05:30:26;;;;;;;1.70;1.30;;;;;;;21.05;54.36;100762.63;4854267;29;20105;-82
2022/06/02 05:33:14;;;;;;;1.38;1.13;;;;;;;20.95;55.58;100771.53;4890305;29;20048;-81
2022/06/02 05:36:20;;;;;;;3.33;1.50;;;;;;;20.85;58.00;100772.53;4887027;29;20052;-81
2022/06/02 05:39:17;;;;;;;2.20;1.17;;;;;;;20.75;56.24;100773.53;4844212;29;20045;-81
2022/06/02 05:42:03;;;;;;;1.92;1.27;;;;;;;20.66;56.40;100775.41;4884633;29;20049;-82
2022/06/02 05:44:49;;;;;;;3.25;1.35;;;;;;;20.63;56.40;100777.19;4890714;29;20784;-78
2022/06/02 05:47:38;;;;;;;4.07;1.13;;;;;;;20.60;55.12;100777.22;4887772;29;20052;-79
2022/06/02 05:50:24;;;;;;;3.95;1.15;;;;;;;20.55;55.96;100782.50;4885064;29;20052;-81
2022/06/02 05:53:04;;;;;;;1.80;1.30;;;;;;;20.51;54.85;100781.66;4892062;28;20511;-79
2022/06/02 05:55:46;;;;;;;2.58;1.13;;;;;;;20.48;54.46;100778.19;4893808;29;20052;-78
2022/06/02 05:58:34;;;;;;;2.97;1.70;;;;;;;20.47;55.08;100786.97;4891513;29;20045;-79
2022/06/02 06:01:15;;;;;;;4.72;1.42;;;;;;;20.44;54.76;100785.25;4893751;29;20387;-82
2022/06/02 06:04:19;;;;;;;3.10;1.63;;;;;;;20.40;57.64;100785.28;4890013;29;20076;-82
2022/06/02 06:06:54;;;;;;;2.22;1.38;;;;;;;20.33;56.65;100786.25;4888144;29;20559;-79
2022/06/02 06:09:35;;;;;;;3.30;1.52;;;;;;;20.33;56.11;100778.34;4890651;29;20097;-79
2022/06/02 06:12:33;;;;;;;3.27;1.10;;;;;;;20.32;57.17;100788.00;4887070;29;20052;-82
2022/06/02 06:15:10;;;;;;;3.72;1.35;;;;;;;20.24;57.41;100790.69;4894089;29;20053;-80
2022/06/02 06:17:49;;;;;;;1.60;1.30;;;;;;;20.15;56.82;100793.41;4883640;29;20135;-78
2022/06/02 06:20:42;;;;;;;1.83;1.20;;;;;;;20.13;58.88;100787.28;4899483;29;20139;-78
2022/06/02 06:23:45;;;;;;;2.90;1.50;;;;;;;20.09;60.30;100793.47;4898493;29;20407;-80
2022/06/02 06:26:24;;;;;;;3.05;1.60;;;;;;;19.92;62.27;100788.34;4874478;29;20100;-77
2022/06/02 06:29:05;;;;;;;2.92;1.65;;;;;;;19.84;62.48;100791.06;4896536;29;20130;-78
2022/06/02 06:31:42;;;;;;;4.63;1.50;;;;;;;19.70;63.05;100789.41;4893998;29;20059;-79
2022/06/02 06:34:22;;;;;;;4.60;1.85;;;;;;;19.56;63.48;100792.09;4894871;29;20052;-79
2022/06/02 06:37:12;;;;;;;3.28;1.52;;;;;;;19.40;63.39;100796.56;4895357;29;20143;-77
2022/06/02 06:39:56;;;;;;;3.78;1.67;;;;;;;19.22;64.20;100794.97;4895584;29;20053;-79
2022/06/02 06:42:48;;;;;;;4.70;1.50;;;;;;;19.01;66.15;100799.44;4886835;29;20063;-81
2022/06/02 06:45:22;;;;;;;6.25;1.75;;;;;;;18.90;65.43;100798.59;4895537;29;20131;-75
2022/06/02 06:47:56;;;;;;;4.47;2.08;;;;;;;18.78;65.23;100783.81;4897129;29;20566;-76
2022/06/02 06:50:34;;;;;;;4.60;1.95;;;;;;;18.84;65.23;100801.22;4895897;29;20048;-76
2022/06/02 06:53:21;;;;;;;7.78;2.85;;;;;;;18.75;66.25;100806.47;4897898;29;20060;-76
2022/06/02 06:56:01;;;;;;;6.28;1.83;;;;;;;18.65;66.83;100805.66;4890513;29;20052;-75
2022/06/02 06:58:40;;;;;;;3.67;1.33;;;;;;;18.60;67.36;100803.03;4894676;29;20048;-76
2022/06/02 07:01:16;;;;;;;2.55;1.33;;;;;;;18.45;68.75;100796.97;4894655;29;20071;-76
2022/06/02 07:03:56;;;;;;;4.57;2.10;;;;;;;18.32;68.63;100803.97;4894518;29;20040;-76
2022/06/02 07:06:46;;;;;;;3.17;1.50;;;;;;;18.19;68.89;100805.75;4893822;29;20459;-76
2022/06/02 07:09:23;;;;;;;4.93;1.63;;;;;;;18.12;69.24;100799.63;4888727;29;20112;-75
2022/06/02 07:14:49;;;;;;;4.95;2.17;;;;;;;17.98;69.80;100801.34;4902384;29;20055;-75
2022/06/02 07:17:24;;;;;;;5.15;2.10;;;;;;;17.94;70.67;100799.66;4896153;29;20049;-75
2022/06/02 07:20:03;;;;;;;3.08;1.52;;;;;;;17.84;70.14;100797.88;4898299;29;20060;-76
2022/06/02 07:22:39;;;;;;;7.40;1.88;;;;;;;17.75;72.09;100798.72;4890782;29;20056;-78
2022/06/02 07:25:17;;;;;;;4.90;1.77;;;;;;;17.79;72.11;100806.56;4896562;29;20048;-78
2022/06/02 07:27:54;;;;;;;4.90;1.85;;;;;;;17.64;71.26;100809.19;4881802;29;20096;-76
2022/06/02 07:30:38;;;;;;;3.75;1.75;;;;;;;17.67;71.36;100810.94;4880887;29;20060;-77
2022/06/02 07:33:33;;;;;;;3.13;1.48;;;;;;;17.56;71.24;100805.66;4882531;29;20693;-76
2022/06/02 07:36:32;;;;;;;4.20;1.77;;;;;;;17.49;72.27;100817.00;4891764;29;20139;-75
2022/06/02 07:39:32;;;;;;;2.67;1.45;;;;;;;17.47;71.67;100813.50;4885522;29;20135;-76
2022/06/02 07:42:31;;;;;;;3.83;1.35;;;;;;;17.37;72.99;100815.22;4882585;29;20041;-76
2022/06/02 07:45:26;;;;;;;3.85;1.60;;;;;;;17.24;73.48;100819.53;4883471;29;20060;-77
2022/06/02 07:48:14;;;;;;;6.32;1.65;;;;;;;17.16;75.42;100816.03;4885140;29;20049;-78
2022/06/02 07:50:51;;;;;;;4.70;1.52;;;;;;;17.08;75.17;100810.78;4893060;29;20052;-76
2022/06/02 07:53:31;;;;;;;2.35;1.35;;;;;;;17.04;75.27;100815.97;4882547;29;20080;-78
2022/06/02 07:56:06;;;;;;;4.82;1.60;;;;;;;16.99;76.23;100810.72;4883334;29;20053;-76
2022/06/02 07:58:43;;;;;;;4.28;1.77;;;;;;;17.01;76.91;100818.59;4884626;29;20466;-76
2022/06/02 08:01:33;;;;;;;4.97;1.75;;;;;;;17.00;75.79;100816.88;4890478;29;20060;-76
2022/06/02 08:04:12;;;;;;;2.25;1.40;;;;;;;17.00;75.18;100817.72;4891262;29;20091;-76
2022/06/02 08:06:49;;;;;;;2.55;1.20;;;;;;;17.02;74.96;100807.25;4894401;29;20055;-76
2022/06/02 08:09:51;;;;;;;3.33;1.50;;;;;;;17.04;74.28;100813.38;4892489;29;20089;-76
2022/06/02 08:12:28;;;;;;;3.90;1.70;;;;;;;17.06;74.10;100806.41;4876666;29;20048;-76
2022/06/02 08:15:12;;;;;;;3.58;1.38;;;;;;;17.03;73.84;100802.03;4898686;29;20055;-76
2022/06/02 08:17:49;;;;;;;4.00;1.70;;;;;;;17.12;74.33;100811.66;4883871;29;20091;-76
2022/06/02 08:20:38;;;;;;;3.35;1.30;;;;;;;17.11;74.66;100812.50;4900731;29;20063;-76
2022/06/02 08:23:16;;;;;;;3.38;1.80;;;;;;;17.09;73.88;100806.44;4892266;29;20056;-76
2022/06/02 08:25:52;;;;;;;2.55;1.38;;;;;;;17.07;74.25;100813.41;4895102;29;20068;-76
2022/06/02 08:28:44;;;;;;;3.40;1.48;;;;;;;17.06;73.77;100801.19;4891734;29;20048;-76
2022/06/02 08:31:23;;;;;;;3.00;1.50;;;;;;;16.98;73.73;100795.06;4891296;29;20056;-76
2022/06/02 08:34:02;;;;;;;4.18;1.58;;;;;;;16.89;74.04;100796.75;4890785;29;20049;-76
2022/06/02 08:36:35;;;;;;;2.83;1.70;;;;;;;16.88;73.92;100789.81;4889119;29;20040;-76
2022/06/02 08:39:27;;;;;;;3.28;1.77;;;;;;;16.85;73.87;100792.38;4894372;29;20428;-77
2022/06/02 08:42:33;;;;;;;3.33;1.67;;;;;;;16.84;73.16;100795.00;4888557;29;20044;-77
2022/06/02 08:45:42;;;;;;;5.80;1.85;;;;;;;16.80;73.34;100798.47;4883716;29;20045;-76
2022/06/02 08:48:55;;;;;;;4.68;1.63;;;;;;;16.74;73.53;100794.94;4853863;29;20698;-77
2022/06/02 08:52:20;;;;;;;8.20;1.77;;;;;;;16.69;73.75;100795.75;4858387;29;20065;-77
2022/06/02 08:55:29;;;;;;;2.13;1.65;;;;;;;16.63;74.22;100793.09;4894623;29;20053;-77
2022/06/02 08:58:30;;;;;;;2.67;1.70;;;;;;;16.57;75.21;100780.91;4893251;29;20048;-76
2022/06/02 09:01:12;;;;;;;2.85;1.48;;;;;;;16.54;76.39;100786.13;4890681;29;20109;-77
2022/06/02 09:04:15;;;;;;;5.85;1.60;;;;;;;16.42;77.39;100784.28;4894671;29;20112;-77
2022/06/02 09:07:18;;;;;;;2.28;1.45;;;;;;;16.28;77.15;100778.97;4886927;29;20432;-77
2022/06/02 09:10:27;;;;;;;3.95;1.50;;;;;;;16.26;77.43;100779.84;4886883;29;20052;-77
2022/06/02 09:13:31;;;;;;;1.52;1.20;;;;;;;16.18;77.72;100773.72;4884617;29;20136;-76
2022/06/02 09:16:18;;;;;;;4.03;1.73;;;;;;;16.25;77.44;100775.50;4856546;29;20155;-76
2022/06/02 09:19:06;;;;;;;5.47;1.92;;;;;;;16.27;77.67;100781.59;4879970;29;20140;-76
2022/06/02 09:21:52;;;;;;;4.10;1.50;;;;;;;16.24;77.82;100777.22;4895248;29;20064;-76
2022/06/02 09:24:28;;;;;;;9.15;1.98;;;;;;;16.22;78.03;100773.75;4883742;29;20079;-77
2022/06/02 09:27:06;;;;;;;3.40;2.00;;;;;;;16.19;77.30;100773.69;4890441;29;20529;-77
2022/06/02 09:29:43;;;;;;;4.25;1.65;;;;;;;16.17;78.24;100774.56;4889105;29;20460;-76
2022/06/02 09:32:47;;;;;;;5.13;2.00;;;;;;;16.15;78.11;100776.28;4890014;29;20060;-76
2022/06/02 09:35:22;;;;;;;3.95;2.10;;;;;;;16.10;78.29;100771.91;4892263;29;20084;-76
2022/06/02 09:38:32;;;;;;;3.28;1.77;;;;;;;16.08;77.59;100764.91;4892877;29;20057;-78
2022/06/02 09:41:24;;;;;;;4.30;1.95;;;;;;;16.02;77.95;100759.69;4883411;29;20400;-76
2022/06/02 09:44:11;;;;;;;3.50;1.55;;;;;;;15.98;78.10;100753.53;4888511;29;20048;-79
2022/06/02 09:47:18;;;;;;;3.65;2.03;;;;;;;15.96;79.14;100752.66;4888143;29;20514;-81
2022/06/02 09:50:12;;;;;;;4.20;1.85;;;;;;;15.87;78.96;100739.53;4893165;29;20512;-77
2022/06/02 09:52:53;;;;;;;3.28;1.70;;;;;;;15.88;79.31;100752.59;4902768;28;20411;-76
2022/06/02 09:55:38;;;;;;;8.70;1.83;;;;;;;15.85;79.16;100749.09;4889148;29;20045;-76
2022/06/02 09:58:41;;;;;;;3.35;1.55;;;;;;;15.75;79.77;100752.50;4894283;29;20052;-76
2022/06/02 10:01:32;;;;;;;3.38;1.63;;;;;;;15.71;79.72;100748.97;4878793;29;20058;-76
2022/06/02 10:04:39;;;;;;;3.58;1.85;;;;;;;15.68;80.30;100748.94;4882345;29;20554;-76
2022/06/02 10:07:29;;;;;;;4.60;1.70;;;;;;;15.65;80.64;100743.69;4889306;29;20059;-76
2022/06/02 10:10:24;;;;;;;1.85;1.52;;;;;;;15.61;81.49;100737.56;4885443;29;20496;-77
2022/06/02 10:13:40;;;;;;;3.28;1.52;;;;;;;15.58;81.43;100748.00;4884048;29;20490;-77
2022/06/02 10:16:31;;;;;;;3.45;1.45;;;;;;;15.53;82.02;100744.47;4775577;29;20043;-76
2022/06/02 10:19:20;;;;;;;4.20;1.40;;;;;;;15.50;82.42;100745.28;4886294;29;20112;-77
2022/06/02 10:22:00;;;;;;;5.15;1.98;;;;;;;15.47;82.90;100752.22;4886643;29;20049;-77
2022/06/02 10:24:59;;;;;;;3.47;1.88;;;;;;;15.42;82.65;100746.09;4883497;29;20052;-78
2022/06/02 10:27:48;;;;;;;2.92;1.65;;;;;;;15.39;83.01;100740.84;4882794;29;20104;-79
2022/06/02 10:31:07;;;;;;;2.42;1.50;;;;;;;15.35;82.85;100739.09;4885538;29;20049;-77
2022/06/02 10:34:16;;;;;;;4.00;1.88;;;;;;;15.32;83.19;100734.69;4835527;29;20106;-77
2022/06/02 10:37:05;;;;;;;3.97;1.33;;;;;;;15.29;83.37;100730.31;4823468;29;20466;-76
2022/06/02 10:40:00;;;;;;;4.00;1.70;;;;;;;15.26;83.19;100727.69;4880853;29;20057;-77
2022/06/02 10:42:46;;;;;;;3.25;1.40;;;;;;;15.23;83.78;100727.69;4882270;29;20049;-76
2022/06/02 10:45:55;;;;;;;6.82;1.67;;;;;;;15.19;83.41;100728.50;4891961;29;20048;-76
2022/06/02 10:49:16;;;;;;;5.07;1.52;;;;;;;15.15;83.91;100733.66;4834477;29;20050;-78
2022/06/02 10:52:29;;;;;;;5.97;1.40;;;;;;;15.12;84.79;100724.09;4846261;29;20079;-77
2022/06/02 10:55:36;;;;;;;3.00;1.60;;;;;;;15.10;84.52;100717.97;4887457;29;20045;-76
2022/06/02 10:58:43;;;;;;;4.20;1.80;;;;;;;15.06;85.15;100716.19;4890542;29;20052;-76
2022/06/02 11:01:58;;;;;;;3.70;1.73;;;;;;;15.02;84.51;100725.69;4892143;29;20474;-77
2022/06/02 11:05:02;;;;;;;6.35;2.20;;;;;;;14.96;84.74;100725.66;4847832;29;20086;-77
2022/06/02 11:08:09;;;;;;;2.45;1.80;;;;;;;14.87;85.61;100736.84;4890398;29;20515;-77
2022/06/02 11:11:25;;;;;;;5.22;1.80;;;;;;;14.81;86.87;100739.34;4883246;29;20446;-77
2022/06/02 11:14:44;;;;;;;2.78;1.60;;;;;;;14.78;87.02;100741.06;4858723;29;20051;-77
2022/06/02 11:17:50;;;;;;;3.70;1.70;;;;;;;14.77;86.93;100740.16;4892146;29;20586;-76
2022/06/02 11:21:01;;;;;;;3.20;1.75;;;;;;;14.75;87.00;100728.88;4880676;29;20098;-77
2022/06/02 11:24:02;;;;;;;4.20;1.98;;;;;;;14.71;86.80;100732.31;4886095;29;20136;-76
2022/06/02 11:27:18;;;;;;;3.72;1.85;;;;;;;14.69;87.50;100728.81;4893212;29;20059;-76
2022/06/02 11:30:11;;;;;;;3.63;1.83;;;;;;;14.66;87.07;100716.63;4865880;29;20500;-79
2022/06/02 11:32:55;;;;;;;3.05;1.77;;;;;;;14.54;86.98;100707.75;4890756;29;20052;-78
2022/06/02 11:35:55;;;;;;;4.00;1.60;;;;;;;14.60;87.65;100720.88;4896408;29;20049;-79
2022/06/02 11:39:22;;;;;;;4.30;1.50;;;;;;;14.51;87.77;100716.38;4890422;29;20411;-77
2022/06/02 11:41:58;;;;;;;3.53;1.60;;;;;;;14.44;89.67;100710.22;4891153;29;20052;-77
2022/06/02 11:44:37;;;;;;;2.92;1.35;;;;;;;14.39;91.43;100706.69;4888518;29;20053;-77
2022/06/02 11:47:35;;;;;;;6.10;1.90;;;;;;;14.37;91.85;100708.41;4892357;29;20053;-76
2022/06/02 11:50:38;;;;;;;2.05;1.33;;;;;;;14.31;91.45;100708.31;4904460;29;20565;-76
2022/06/02 11:53:39;;;;;;;3.03;1.80;;;;;;;14.29;91.50;100707.41;4880984;28;20057;-77
2022/06/02 11:56:15;;;;;;;2.55;1.83;;;;;;;14.29;91.81;100707.41;4888654;29;20056;-76
2022/06/02 11:59:21;;;;;;;1.85;1.58;;;;;;;14.30;92.11;100703.97;4901159;29;20433;-79
2022/06/02 12:02:24;;;;;;;4.18;1.45;;;;;;;14.29;91.92;100707.41;4888691;29;20061;-77
2022/06/02 12:05:32;;;;;;;4.47;2.20;;;;;;;14.31;91.30;100702.25;4884324;29;20052;-79
2022/06/02 12:08:40;;;;;;;6.13;1.67;;;;;;;14.30;91.64;100696.16;4878145;29;20423;-77
2022/06/02 12:11:40;;;;;;;4.03;1.77;;;;;;;14.30;92.05;100692.69;4889704;29;20049;-77
2022/06/02 12:14:23;;;;;;;4.07;1.20;;;;;;;14.29;91.95;100694.41;4886634;29;20055;-77
2022/06/02 12:17:19;;;;;;;4.53;1.73;;;;;;;14.27;92.53;100693.53;4895005;29;20630;-77
2022/06/02 12:20:10;;;;;;;3.80;1.67;;;;;;;14.24;93.04;100694.34;4888385;29;20076;-77
2022/06/02 12:23:05;;;;;;;2.08;1.58;;;;;;;14.23;92.95;100692.59;4891122;29;20041;-77
2022/06/02 12:25:57;;;;;;;2.33;1.48;;;;;;;14.22;92.63;100687.38;4887734;29;20052;-76
2022/06/02 12:29:01;;;;;;;2.85;1.77;;;;;;;14.20;93.27;100678.66;4894247;29;20052;-76
2022/06/02 12:31:45;;;;;;;4.25;1.30;;;;;;;14.20;93.62;100689.06;4887097;29;20068;-77
2022/06/02 12:34:45;;;;;;;3.88;1.80;;;;;;;14.19;92.65;100680.41;4891974;29;20554;-76
2022/06/02 12:37:41;;;;;;;7.50;1.80;;;;;;;14.18;92.24;100693.41;4861189;29;20056;-77
2022/06/02 12:40:35;;;;;;;3.58;1.65;;;;;;;14.17;92.10;100683.84;4884057;29;20822;-76
2022/06/02 12:43:26;;;;;;;2.33;1.52;;;;;;;14.17;92.17;100682.09;4888702;29;20055;-77
2022/06/02 12:46:09;;;;;;;2.58;1.40;;;;;;;14.18;92.43;100690.81;4893445;29;20068;-77
2022/06/02 12:49:10;;;;;;;2.58;1.55;;;;;;;14.18;91.64;100685.59;4895032;29;20511;-77
2022/06/02 12:52:12;;;;;;;2.83;1.75;;;;;;;14.19;92.72;100684.72;4893057;28;20071;-78
2022/06/02 12:55:18;;;;;;;5.35;1.55;;;;;;;14.21;92.49;100685.63;4887949;29;20455;-78
2022/06/02 12:58:21;;;;;;;3.33;1.40;;;;;;;14.22;92.68;100682.16;4898389;29;20048;-78
2022/06/02 13:01:09;;;;;;;5.30;1.75;;;;;;;14.22;92.27;100683.06;4889660;29;20495;-79
2022/06/02 13:04:11;;;;;;;3.72;1.50;;;;;;;14.23;92.80;100682.19;4885095;29;20538;-78
2022/06/02 13:07:11;;;;;;;2.83;1.50;;;;;;;14.19;94.85;100687.34;4898444;29;20518;-78